Vandergrift, Pennsylvania
Current Conditions -  °F | °C
As of 5:35 PM on Monday 26 Jan 2015 (Local Time) from KBTP Reporting Station
Overcast Overcast  
Wind Chill: 25°   Ceiling: 2200
Heat Index: 25°   Visibility: 2mi
Dew Point: 21°   Wind: 3mph
Humidity: 86%   Direction: 300°WNW
Pressure: 29.77"   Gusts: NA
Location:  40.6°N, 79.57°W
Report Text: KBTP 262235Z AUTO 30003KT 2SM SCT009 OVC022 M04/M06 A2977 RMK AO1 P0002
Loading
Personal Weather Stations






























Interactive Weather Map New forecast layout! Learn more

10-Day Weather Forecast

Advertisements
Track Severe Weather on mobile